Coy, Arkansas
Current Conditions -  °F | °C
As of 5:15 AM on Thursday 18 Dec 2014 (Local Time) from KSGT Reporting Station
Broken Clouds Broken Clouds  
Wind Chill: 31°   Ceiling: 4200
Heat Index: 37°   Visibility: 7mi
Dew Point: 36°   Wind: 8mph
Humidity: 93%   Direction: 60°ENE
Pressure: 30.2"   Gusts: NA
Location:  34.54°N, 91.87°W
Report Text: KSGT 181115Z AUTO 06007KT 7SM FEW006 SCT029 BKN042 03/02 A3020 RMK AO1 P0002
Loading
Personal Weather Stations






























Interactive Weather Map New forecast layout! Learn more

10-Day Weather Forecast

Advertisements
Track Severe Weather on mobile